Time;durP1;ratioP1;P1;durP2;ratioP2;P2;SDS_P1;SDS_P2;PMS_P1;PMS_P2;Temp;Humidity;BMP_temperature;BMP_pressure;BME280_temperature;BME280_humidity;BME280_pressure;Samples;Min_cycle;Max_cycle;Signal;HPM_P1;HPM_P2
2022/12/02 00:02:31;;;;;;;113.95;57.83;;;4.60;99.90;;;;;;5115336;28;20024;-64
2022/12/02 00:05:10;;;;;;;;;;;4.50;99.90;;;;;;5115870;28;20053;-64
2022/12/02 00:07:36;;;;;;;102.88;53.63;;;4.60;99.90;;;;;;5115108;28;19908;-65
2022/12/02 00:10:22;;;;;;;108.35;60.55;;;4.70;99.90;;;;;;5114923;28;20035;-64
2022/12/02 00:12:48;;;;;;;98.30;53.38;;;4.80;99.90;;;;;;5115232;28;20491;-64
2022/12/02 00:15:36;;;;;;;84.68;49.75;;;4.80;99.90;;;;;;5115045;28;20052;-64
2022/12/02 00:18:02;;;;;;;84.55;47.60;;;4.90;99.90;;;;;;5115246;28;20484;-64
2022/12/02 00:20:28;;;;;;;70.22;41.50;;;4.80;99.90;;;;;;5115074;28;20098;-64
2022/12/02 00:22:54;;;;;;;81.38;45.42;;;4.80;99.90;;;;;;5114962;28;20063;-64
2022/12/02 00:25:20;;;;;;;74.82;44.10;;;4.60;99.90;;;;;;5115173;28;20028;-64
2022/12/02 00:27:46;;;;;;;79.63;45.05;;;4.60;99.90;;;;;;5115166;28;20042;-64
2022/12/02 00:30:12;;;;;;;111.30;59.35;;;4.60;99.90;;;;;;5114881;28;20473;-64
2022/12/02 00:32:38;;;;;;;84.38;46.65;;;4.50;99.90;;;;;;5114895;28;20047;-64
2022/12/02 00:35:04;;;;;;;87.45;46.60;;;4.70;99.90;;;;;;5096813;28;20096;-65
2022/12/02 00:37:30;;;;;;;82.93;45.85;;;4.70;99.90;;;;;;5114868;28;20027;-64
2022/12/02 00:39:56;;;;;;;76.55;43.33;;;4.80;99.90;;;;;;5114976;28;20015;-64
2022/12/02 00:42:22;;;;;;;76.88;45.33;;;4.80;99.90;;;;;;5114908;28;20088;-64
2022/12/02 00:47:32;;;;;;;78.85;45.35;;;4.60;99.90;;;;;;5114794;28;20462;-64
2022/12/02 00:49:58;;;;;;;96.10;53.53;;;4.60;99.90;;;;;;5114791;28;20039;-64
2022/12/02 00:52:24;;;;;;;103.63;56.00;;;4.60;99.90;;;;;;5096543;28;20080;-64
2022/12/02 00:54:50;;;;;;;86.05;47.45;;;4.60;99.90;;;;;;5114619;28;20030;-64
2022/12/02 00:57:16;;;;;;;95.80;52.33;;;4.60;99.90;;;;;;5096315;28;20031;-64
2022/12/02 00:59:42;;;;;;;109.53;58.60;;;4.60;99.90;;;;;;5100244;28;20032;-64
2022/12/02 01:02:08;;;;;;;99.47;52.45;;;4.60;99.90;;;;;;5118459;28;20023;-64
2022/12/02 01:04:34;;;;;;;96.72;54.28;;;4.60;99.90;;;;;;5118799;28;20442;-64
2022/12/02 01:07:00;;;;;;;109.00;57.88;;;4.60;99.90;;;;;;5118622;28;20377;-64
2022/12/02 01:09:26;;;;;;;121.45;62.10;;;4.50;99.90;;;;;;5118591;28;20032;-64
2022/12/02 01:11:52;;;;;;;112.60;58.25;;;4.40;99.90;;;;;;5100087;28;20032;-64
2022/12/02 01:14:18;;;;;;;103.07;55.30;;;4.50;99.90;;;;;;5118632;28;20030;-64
2022/12/02 01:16:44;;;;;;;101.38;53.40;;;4.40;99.90;;;;;;5118373;28;20401;-64
2022/12/02 01:19:10;;;;;;;77.55;44.55;;;4.40;99.90;;;;;;5118355;28;20057;-64
2022/12/02 01:21:36;;;;;;;85.28;47.05;;;4.50;99.90;;;;;;5099999;28;20028;-64
2022/12/02 01:24:02;;;;;;;77.60;45.00;;;4.60;99.90;;;;;;5118291;28;20118;-64
2022/12/02 01:26:28;;;;;;;82.72;46.92;;;4.60;99.90;;;;;;5118321;28;20545;-64
2022/12/02 01:28:54;;;;;;;97.90;51.53;;;4.70;99.90;;;;;;5099957;28;20035;-64
2022/12/02 01:31:20;;;;;;;110.82;57.80;;;4.60;99.90;;;;;;5099765;28;20067;-64
2022/12/02 01:33:46;;;;;;;142.30;67.78;;;4.50;99.90;;;;;;5118070;28;20051;-64
2022/12/02 01:36:12;;;;;;;107.35;55.53;;;4.50;99.90;;;;;;5118141;28;20103;-64
2022/12/02 01:38:38;;;;;;;126.72;62.60;;;4.50;99.90;;;;;;5118088;28;20064;-64
2022/12/02 01:41:05;;;;;;;121.72;60.58;;;4.50;99.90;;;;;;5099798;28;20465;-64
2022/12/02 01:43:31;;;;;;;99.75;52.67;;;4.50;99.90;;;;;;5099687;28;20032;-64
2022/12/02 01:45:58;;;;;;;100.45;51.70;;;4.60;99.90;;;;;;5117950;28;20028;-64
2022/12/02 01:48:26;;;;;;;90.85;49.95;;;4.50;99.90;;;;;;5099587;28;20039;-64
2022/12/02 01:50:52;;;;;;;96.28;54.70;;;4.60;99.90;;;;;;5117959;28;20032;-64
2022/12/02 01:53:19;;;;;;;95.45;54.03;;;4.50;99.90;;;;;;5117848;28;20019;-64
2022/12/02 01:55:44;;;;;;;99.03;54.58;;;4.50;99.90;;;;;;5117601;28;20091;-64
2022/12/02 01:58:13;;;;;;;111.47;57.42;;;4.50;99.90;;;;;;5099451;28;20031;-64
2022/12/02 02:00:39;;;;;;;105.18;56.10;;;4.40;99.90;;;;;;5099343;28;20023;-64
2022/12/02 02:03:05;;;;;;;92.97;52.42;;;4.50;99.90;;;;;;5099315;28;20028;-64
2022/12/02 02:05:33;;;;;;;118.50;64.93;;;4.50;99.90;;;;;;5099456;28;20030;-64
2022/12/02 02:08:05;;;;;;;106.22;57.42;;;4.60;99.90;;;;;;5099046;28;20055;-65
2022/12/02 02:10:32;;;;;;;88.93;49.45;;;4.60;99.90;;;;;;5098041;28;20071;-64
2022/12/02 02:12:59;;;;;;;85.90;49.20;;;4.60;99.90;;;;;;5099138;28;20036;-64
2022/12/02 02:15:25;;;;;;;98.65;52.72;;;4.60;99.90;;;;;;5098994;28;20051;-65
2022/12/02 02:17:53;;;;;;;101.63;55.72;;;4.50;99.90;;;;;;5117413;28;20046;-64
2022/12/02 02:20:22;;;;;;;103.80;55.17;;;4.60;99.90;;;;;;5117164;28;20130;-64
2022/12/02 02:23:02;;;;;;;93.22;51.60;;;4.50;99.90;;;;;;5117213;28;20020;-64
2022/12/02 02:25:29;;;;;;;79.85;46.22;;;4.50;99.90;;;;;;5099015;28;20035;-65
2022/12/02 02:28:00;;;;;;;113.57;58.95;;;4.70;99.90;;;;;;5117269;28;20028;-64
2022/12/02 02:30:30;;;;;;;105.15;54.92;;;4.60;99.90;;;;;;5098874;28;20119;-64
2022/12/02 02:32:57;;;;;;;91.15;49.17;;;4.50;99.90;;;;;;5098684;28;20046;-64
2022/12/02 02:35:23;;;;;;;96.97;50.42;;;4.60;99.90;;;;;;5098855;28;20028;-64
2022/12/02 02:37:52;;;;;;;97.60;52.55;;;4.50;99.90;;;;;;5116876;28;20027;-65
2022/12/02 02:40:19;;;;;;;78.38;43.63;;;4.40;99.90;;;;;;5098731;28;20115;-64
2022/12/02 02:42:50;;;;;;;73.95;41.47;;;4.50;99.90;;;;;;5098545;28;20050;-64
2022/12/02 02:45:19;;;;;;;74.07;39.08;;;4.50;99.90;;;;;;5098471;28;20077;-64
2022/12/02 02:47:46;;;;;;;61.53;37.05;;;4.40;99.90;;;;;;5098549;28;20027;-65
2022/12/02 02:50:12;;;;;;;63.83;36.15;;;4.50;99.90;;;;;;5098704;28;20032;-64
2022/12/02 02:52:39;;;;;;;65.00;36.95;;;4.60;99.90;;;;;;5098346;28;20027;-65
2022/12/02 02:55:06;;;;;;;69.90;36.78;;;4.70;99.90;;;;;;5116602;28;20034;-64
2022/12/02 02:57:34;;;;;;;65.10;36.20;;;4.60;99.90;;;;;;5116560;28;20019;-64
2022/12/02 03:00:03;;;;;;;67.22;36.83;;;4.70;99.90;;;;;;5098264;28;20031;-65
2022/12/02 03:02:29;;;;;;;64.45;36.67;;;4.60;99.90;;;;;;5098205;28;20485;-64
2022/12/02 03:04:55;;;;;;;64.25;36.20;;;4.50;99.90;;;;;;5098249;28;20031;-64
2022/12/02 03:07:23;;;;;;;67.93;36.63;;;4.50;99.90;;;;;;5097785;28;20076;-64
2022/12/02 03:09:50;;;;;;;67.97;36.95;;;4.40;99.90;;;;;;5097717;28;20032;-64
2022/12/02 03:12:17;;;;;;;69.25;36.58;;;4.50;99.90;;;;;;5098090;28;20031;-64
2022/12/02 03:14:44;;;;;;;64.35;35.38;;;4.60;99.90;;;;;;5116005;28;20035;-64
2022/12/02 03:17:10;;;;;;;66.57;35.80;;;4.70;99.90;;;;;;5116178;28;20453;-64
2022/12/02 03:19:37;;;;;;;75.85;38.58;;;4.70;99.90;;;;;;5116095;28;20019;-65
2022/12/02 03:22:03;;;;;;;80.97;41.72;;;4.70;99.90;;;;;;5115772;28;20477;-64
2022/12/02 03:24:31;;;;;;;82.75;41.67;;;4.60;99.90;;;;;;5116173;28;20093;-64
2022/12/02 03:26:59;;;;;;;83.57;42.90;;;4.50;99.90;;;;;;5116101;28;20389;-64
2022/12/02 03:29:27;;;;;;;82.40;42.88;;;4.50;99.90;;;;;;5115951;28;20019;-64
2022/12/02 03:31:53;;;;;;;83.72;44.42;;;4.50;99.90;;;;;;5115763;28;20035;-64
2022/12/02 03:34:19;;;;;;;77.70;42.08;;;4.50;99.90;;;;;;5115617;28;20039;-64
2022/12/02 03:36:45;;;;;;;79.88;41.42;;;4.50;99.90;;;;;;5115977;28;20361;-64
2022/12/02 03:39:11;;;;;;;76.55;40.25;;;4.50;99.90;;;;;;5115909;28;20050;-64
2022/12/02 03:41:38;;;;;;;73.63;39.22;;;4.50;99.90;;;;;;5115829;28;20024;-64
2022/12/02 03:44:05;;;;;;;79.10;40.97;;;4.50;99.90;;;;;;5115469;28;20027;-64
2022/12/02 03:46:31;;;;;;;76.07;39.40;;;4.50;99.90;;;;;;5115635;28;20064;-64
2022/12/02 03:48:58;;;;;;;71.65;38.55;;;4.60;99.90;;;;;;5115578;28;20028;-63
2022/12/02 03:51:25;;;;;;;71.18;39.33;;;4.50;99.90;;;;;;5115524;28;20034;-64
2022/12/02 03:53:52;;;;;;;67.32;36.05;;;4.40;99.90;;;;;;5115549;28;20024;-64
2022/12/02 03:56:18;;;;;;;68.72;37.65;;;4.40;99.90;;;;;;5115181;28;20073;-64
2022/12/02 03:58:49;;;;;;;66.13;36.63;;;4.50;99.90;;;;;;5115752;28;20434;-64
2022/12/02 04:01:15;;;;;;;74.13;40.63;;;4.50;99.90;;;;;;5115416;28;20020;-64
2022/12/02 04:03:41;;;;;;;71.85;36.63;;;4.60;99.90;;;;;;5115259;28;20075;-64
2022/12/02 04:06:08;;;;;;;66.88;36.20;;;4.60;99.90;;;;;;5115161;28;20020;-63
2022/12/02 04:08:34;;;;;;;69.40;37.30;;;4.60;99.90;;;;;;5115220;28;20427;-64
2022/12/02 04:11:00;;;;;;;70.18;37.58;;;4.50;99.90;;;;;;5115297;28;20110;-64
2022/12/02 04:13:26;;;;;;;72.03;38.83;;;4.50;99.90;;;;;;5115293;28;20062;-64
2022/12/02 04:15:52;;;;;;;72.63;38.53;;;4.50;99.90;;;;;;5114809;28;20103;-63
2022/12/02 04:18:18;;;;;;;70.70;38.63;;;4.50;99.90;;;;;;5114923;28;20020;-64
2022/12/02 04:20:44;;;;;;;67.35;37.33;;;4.60;99.90;;;;;;5115194;28;20426;-64
2022/12/02 04:23:10;;;;;;;65.82;36.63;;;4.50;99.90;;;;;;5115163;28;20064;-64
2022/12/02 04:25:36;;;;;;;64.82;35.75;;;4.40;99.90;;;;;;5114952;28;20085;-64
2022/12/02 04:28:02;;;;;;;64.60;36.45;;;4.50;99.90;;;;;;5115159;28;20039;-64
2022/12/02 04:30:28;;;;;;;72.82;39.20;;;4.60;99.90;;;;;;5114878;28;20031;-63
2022/12/02 04:32:54;;;;;;;65.00;36.25;;;4.50;99.90;;;;;;5114185;28;20032;-64
2022/12/02 04:35:19;;;;;;;65.20;35.95;;;4.50;99.90;;;;;;5114984;28;20030;-64
2022/12/02 04:37:45;;;;;;;63.03;34.63;;;4.50;99.90;;;;;;5114947;28;20035;-64
2022/12/02 04:40:12;;;;;;;61.40;33.97;;;4.40;99.90;;;;;;5114851;28;20024;-64
2022/12/02 04:42:38;;;;;;;59.85;33.33;;;4.40;99.90;;;;;;5114777;28;20495;-64
2022/12/02 04:45:04;;;;;;;54.72;31.25;;;4.40;99.90;;;;;;5114764;28;20027;-64
2022/12/02 04:47:30;;;;;;;63.63;34.88;;;4.40;99.90;;;;;;5115077;28;20031;-64
2022/12/02 04:49:56;;;;;;;65.10;36.08;;;4.40;99.90;;;;;;5114813;28;20499;-64
2022/12/02 04:52:22;;;;;;;58.95;33.75;;;4.40;99.90;;;;;;5114802;28;20034;-64
2022/12/02 04:54:48;;;;;;;65.38;38.15;;;4.40;99.90;;;;;;5114594;28;20032;-64
2022/12/02 04:57:14;;;;;;;58.83;34.25;;;4.20;99.90;;;;;;5096482;28;20051;-64
2022/12/02 04:59:40;;;;;;;57.10;31.83;;;4.10;99.90;;;;;;5114728;28;20370;-64
2022/12/02 05:02:06;;;;;;;60.38;34.78;;;4.10;99.90;;;;;;5114683;28;20020;-63
2022/12/02 05:04:32;;;;;;;53.20;32.75;;;4.10;99.90;;;;;;5114773;28;20030;-64
2022/12/02 05:06:58;;;;;;;52.35;29.45;;;4.20;99.90;;;;;;5114400;28;20039;-64
2022/12/02 05:09:24;;;;;;;54.40;32.85;;;4.30;99.90;;;;;;5114318;28;20035;-64
2022/12/02 05:11:50;;;;;;;49.78;29.13;;;4.30;99.90;;;;;;5114653;28;20127;-63
2022/12/02 05:14:15;;;;;;;53.10;31.63;;;4.30;99.90;;;;;;5114533;28;20035;-64
2022/12/02 05:16:41;;;;;;;53.05;31.25;;;4.30;99.90;;;;;;5114453;28;20049;-64
2022/12/02 05:19:07;;;;;;;49.25;29.52;;;4.20;99.90;;;;;;5114441;28;20028;-63
2022/12/02 05:21:33;;;;;;;51.50;29.45;;;4.20;99.90;;;;;;5114497;28;20024;-63
2022/12/02 05:23:59;;;;;;;50.78;29.55;;;4.20;99.90;;;;;;5114638;28;20028;-63
2022/12/02 05:26:25;;;;;;;51.83;30.05;;;4.20;99.90;;;;;;5114387;28;20011;-64
2022/12/02 05:28:51;;;;;;;53.05;30.25;;;4.10;99.90;;;;;;5114334;28;20023;-64
2022/12/02 05:31:17;;;;;;;53.88;29.20;;;4.20;99.90;;;;;;5114440;28;20024;-64
2022/12/02 05:33:42;;;;;;;59.72;31.60;;;4.20;99.90;;;;;;5114480;28;20115;-64
2022/12/02 05:36:11;;;;;;;55.83;31.27;;;4.30;99.90;;;;;;5114336;28;20030;-64
2022/12/02 05:38:38;;;;;;;49.28;28.98;;;4.30;99.90;;;;;;5114294;28;20028;-64
2022/12/02 05:41:04;;;;;;;119.15;77.07;;;4.20;99.90;;;;;;5114450;28;20442;-63
2022/12/02 05:43:38;;;;;;;52.65;33.22;;;4.20;99.90;;;;;;5114061;28;20026;-64
2022/12/02 05:46:16;;;;;;;59.78;32.63;;;4.30;99.90;;;;;;5116500;28;20085;-64
2022/12/02 05:48:43;;;;;;;57.53;32.13;;;4.20;99.90;;;;;;5118042;28;20493;-64
2022/12/02 05:51:20;;;;;;;57.08;30.83;;;4.20;99.90;;;;;;5099527;28;20353;-64
2022/12/02 05:53:48;;;;;;;47.70;29.42;;;4.30;99.90;;;;;;5117803;28;20388;-64
2022/12/02 05:56:26;;;;;;;63.05;45.15;;;4.30;99.90;;;;;;5117611;28;20073;-64
2022/12/02 05:58:52;;;;;;;54.78;34.40;;;4.30;99.90;;;;;;5117685;28;20031;-64
2022/12/02 06:01:30;;;;;;;52.75;29.95;;;4.20;99.90;;;;;;5117619;28;20024;-64
2022/12/02 06:03:58;;;;;;;62.80;31.63;;;4.30;99.90;;;;;;5117566;28;20092;-64
2022/12/02 06:06:29;;;;;;;51.20;30.25;;;4.30;99.90;;;;;;5117131;28;20081;-64
2022/12/02 06:08:55;;;;;;;47.40;26.77;;;4.20;99.90;;;;;;5117516;28;20087;-64
2022/12/02 06:11:37;;;;;;;51.92;31.75;;;4.20;99.90;;;;;;5117492;28;20096;-64
2022/12/02 06:14:15;;;;;;;50.45;29.95;;;4.20;99.90;;;;;;5117217;28;20032;-64
2022/12/02 06:16:46;;;;;;;48.15;28.67;;;4.10;99.90;;;;;;5117741;28;20051;-64
2022/12/02 06:19:25;;;;;;;47.28;27.13;;;4.10;99.90;;;;;;5117747;28;20139;-64
2022/12/02 06:21:52;;;;;;;49.95;28.35;;;4.30;99.90;;;;;;5099430;28;20123;-64
2022/12/02 06:24:26;;;;;;;46.15;26.67;;;4.20;99.90;;;;;;5118047;28;20022;-63
2022/12/02 06:26:53;;;;;;;71.47;38.20;;;4.10;99.90;;;;;;5117804;28;20155;-63
2022/12/02 06:29:20;;;;;;;158.25;82.72;;;4.20;99.90;;;;;;5117015;28;20355;-63
2022/12/02 06:31:46;;;;;;;186.43;94.65;;;4.10;99.90;;;;;;5116766;28;20034;-63
2022/12/02 06:34:37;;;;;;;67.57;36.75;;;4.20;99.90;;;;;;5117035;28;20477;-63
2022/12/02 06:37:17;;;;;;;66.70;36.78;;;4.00;99.90;;;;;;5105793;28;20089;-63
2022/12/02 06:39:46;;;;;;;79.47;38.00;;;4.00;99.90;;;;;;5096489;28;20046;-64
2022/12/02 06:42:31;;;;;;;58.50;29.17;;;4.00;99.90;;;;;;5096309;28;20441;-63
2022/12/02 06:45:14;;;;;;;45.33;26.45;;;4.10;99.90;;;;;;5096636;28;20085;-62
2022/12/02 06:47:59;;;;;;;49.83;27.55;;;4.20;99.90;;;;;;5117537;27;20033;-63
2022/12/02 06:50:27;;;;;;;54.20;31.92;;;4.30;99.90;;;;;;5095982;28;20069;-63
2022/12/02 06:53:01;;;;;;;55.28;30.77;;;4.20;99.90;;;;;;5096752;28;20097;-63
2022/12/02 06:55:35;;;;;;;64.53;35.17;;;4.20;99.90;;;;;;5106174;27;20028;-63
2022/12/02 06:58:24;;;;;;;57.08;31.33;;;4.20;99.90;;;;;;5116266;27;20032;-64
2022/12/02 07:00:50;;;;;;;61.35;32.13;;;4.30;99.90;;;;;;5104352;28;20362;-63
2022/12/02 07:03:30;;;;;;;69.03;34.00;;;4.20;99.90;;;;;;5099854;28;20020;-63
2022/12/02 07:06:23;;;;;;;69.80;35.47;;;4.20;99.90;;;;;;5066883;28;20057;-63
2022/12/02 07:08:50;;;;;;;67.13;34.10;;;4.30;99.90;;;;;;5099302;27;20120;-63
2022/12/02 07:14:41;;;;;;;63.22;33.53;;;4.30;99.90;;;;;;5097872;28;20032;-63
2022/12/02 07:17:18;;;;;;;62.45;34.80;;;4.40;99.90;;;;;;5105340;27;20043;-63
2022/12/02 07:19:47;;;;;;;59.83;34.25;;;4.50;99.90;;;;;;5098288;28;20024;-64
2022/12/02 07:22:38;;;;;;;71.50;39.47;;;4.50;99.90;;;;;;5107129;27;20687;-63
2022/12/02 07:25:03;;;;;;;68.57;34.45;;;4.50;99.90;;;;;;5110665;27;20097;-62
2022/12/02 07:27:32;;;;;;;64.80;34.47;;;4.60;99.90;;;;;;5105092;28;20445;-62
2022/12/02 07:30:00;;;;;;;61.25;35.28;;;4.60;99.90;;;;;;5085875;28;20495;-63
2022/12/02 07:32:29;;;;;;;59.55;33.78;;;4.60;99.90;;;;;;5108630;28;20031;-62
2022/12/02 07:34:55;;;;;;;57.42;31.83;;;4.60;99.90;;;;;;5112913;27;20541;-63
2022/12/02 07:37:21;;;;;;;62.45;34.83;;;4.50;99.90;;;;;;5136040;27;20027;-62
2022/12/02 07:39:47;;;;;;;58.20;32.13;;;4.50;99.90;;;;;;5136743;27;20107;-63
2022/12/02 07:42:13;;;;;;;59.08;32.28;;;4.60;99.90;;;;;;5116956;27;20020;-62
2022/12/02 07:44:39;;;;;;;58.85;32.28;;;4.80;99.90;;;;;;5101562;27;20057;-63
2022/12/02 07:47:06;;;;;;;56.45;30.05;;;4.90;99.90;;;;;;5114336;27;20034;-64
2022/12/02 07:49:32;;;;;;;53.58;31.60;;;5.00;99.90;;;;;;5114434;27;20462;-63
2022/12/02 07:51:58;;;;;;;61.78;33.17;;;5.00;99.90;;;;;;5086720;28;20035;-63
2022/12/02 07:54:24;;;;;;;56.45;33.65;;;5.00;99.90;;;;;;5105948;28;20393;-63
2022/12/02 07:56:50;;;;;;;75.95;42.00;;;5.00;99.90;;;;;;5111818;28;20027;-63
2022/12/02 07:59:16;;;;;;;83.30;42.60;;;5.00;99.90;;;;;;5113596;27;20024;-62
2022/12/02 08:01:44;;;;;;;80.95;45.00;;;5.00;99.90;;;;;;5110059;28;20374;-63
2022/12/02 08:04:12;;;;;;;69.75;37.15;;;5.10;99.90;;;;;;5104803;27;20062;-63
2022/12/02 08:06:38;;;;;;;71.20;39.15;;;5.20;99.90;;;;;;5105829;28;20023;-63
2022/12/02 08:09:04;;;;;;;76.28;42.38;;;5.20;99.90;;;;;;5111812;28;20084;-63
2022/12/02 08:11:30;;;;;;;74.07;39.25;;;5.30;99.90;;;;;;5091950;28;20035;-63
2022/12/02 08:13:56;;;;;;;94.20;51.97;;;5.30;99.90;;;;;;5103499;28;20031;-64
2022/12/02 08:16:25;;;;;;;111.13;56.10;;;5.30;99.90;;;;;;5108583;28;20043;-63
2022/12/02 08:18:51;;;;;;;97.47;49.53;;;5.30;99.90;;;;;;5130930;27;20031;-63
2022/12/02 08:21:17;;;;;;;82.05;44.05;;;5.40;99.90;;;;;;5123359;27;20032;-63
2022/12/02 08:23:43;;;;;;;89.32;44.80;;;5.50;99.90;;;;;;5123601;27;20114;-63
2022/12/02 08:26:09;;;;;;;72.68;40.75;;;5.50;99.90;;;;;;5124770;27;20035;-62
2022/12/02 08:28:35;;;;;;;74.30;40.47;;;5.40;99.90;;;;;;5123031;27;20038;-64
2022/12/02 08:31:01;;;;;;;68.65;37.95;;;5.40;99.90;;;;;;5118726;28;20030;-63
2022/12/02 08:33:26;;;;;;;77.30;39.22;;;5.30;99.90;;;;;;5117823;28;20028;-63
2022/12/02 08:35:52;;;;;;;75.65;40.88;;;5.40;99.90;;;;;;5127905;27;20027;-63
2022/12/02 08:38:19;;;;;;;70.85;40.80;;;5.50;99.90;;;;;;5133938;27;20106;-62
2022/12/02 08:40:45;;;;;;;75.28;40.42;;;5.50;99.90;;;;;;5136207;28;20019;-63
2022/12/02 08:43:11;;;;;;;76.15;40.60;;;5.40;99.90;;;;;;5129316;28;20027;-63
2022/12/02 08:45:37;;;;;;;78.07;42.38;;;5.60;99.90;;;;;;5120385;28;20028;-63
2022/12/02 08:48:03;;;;;;;85.38;45.97;;;5.70;99.90;;;;;;5131221;27;20031;-64
2022/12/02 08:50:28;;;;;;;112.72;63.25;;;5.80;99.90;;;;;;5133575;27;20055;-63
2022/12/02 08:52:54;;;;;;;96.63;51.80;;;5.90;99.90;;;;;;5107060;28;20059;-63
2022/12/02 08:55:20;;;;;;;92.15;47.70;;;5.90;99.90;;;;;;5134485;28;20019;-63
2022/12/02 08:57:46;;;;;;;102.10;52.13;;;5.90;99.90;;;;;;5132823;28;20029;-63
2022/12/02 09:00:13;;;;;;;97.75;51.70;;;6.00;99.90;;;;;;5133211;28;20023;-63
2022/12/02 09:02:39;;;;;;;85.65;45.03;;;5.80;99.90;;;;;;5133300;28;20047;-64
2022/12/02 09:05:05;;;;;;;90.55;49.17;;;5.80;99.90;;;;;;5134057;28;20066;-63
2022/12/02 09:07:31;;;;;;;96.45;50.72;;;5.80;99.90;;;;;;5132493;28;20027;-63
2022/12/02 09:09:57;;;;;;;102.00;51.20;;;5.90;99.90;;;;;;5129962;28;20481;-63
2022/12/02 09:12:26;;;;;;;92.13;50.00;;;5.90;99.90;;;;;;5124637;28;20088;-63
2022/12/02 09:14:53;;;;;;;88.25;48.17;;;6.00;99.90;;;;;;5133940;28;20027;-64
2022/12/02 09:17:19;;;;;;;98.25;51.00;;;6.00;99.90;;;;;;5134390;28;20031;-64
2022/12/02 09:19:48;;;;;;;111.85;57.83;;;6.10;99.90;;;;;;5134380;27;20026;-64
2022/12/02 09:22:13;;;;;;;116.43;60.42;;;6.00;99.90;;;;;;5127114;27;20023;-64
2022/12/02 09:24:39;;;;;;;112.72;56.40;;;6.00;99.90;;;;;;5137444;27;20369;-64
2022/12/02 09:27:05;;;;;;;108.10;55.13;;;6.10;99.90;;;;;;5138391;27;20030;-63
2022/12/02 09:29:32;;;;;;;106.85;54.00;;;6.00;99.90;;;;;;5135737;27;20027;-64
2022/12/02 09:31:58;;;;;;;106.90;53.13;;;6.00;99.90;;;;;;5123284;27;20092;-64
2022/12/02 09:34:24;;;;;;;98.18;53.03;;;6.00;99.90;;;;;;5121225;27;20035;-63
2022/12/02 09:36:53;;;;;;;112.07;56.47;;;6.00;99.90;;;;;;5135038;27;20031;-64
2022/12/02 09:39:19;;;;;;;122.78;60.70;;;5.90;99.90;;;;;;5135695;27;20018;-64
2022/12/02 09:41:45;;;;;;;132.82;64.25;;;5.90;99.90;;;;;;5135703;27;20464;-63
2022/12/02 09:44:11;;;;;;;135.70;67.82;;;6.00;99.90;;;;;;5132621;27;20057;-63
2022/12/02 09:46:37;;;;;;;131.75;66.40;;;6.00;99.90;;;;;;5136612;27;20138;-64
2022/12/02 09:49:03;;;;;;;118.38;58.97;;;6.20;99.90;;;;;;5134083;27;20551;-64
2022/12/02 09:51:31;;;;;;;119.78;58.22;;;6.30;99.90;;;;;;5138452;27;20045;-63
2022/12/02 09:53:57;;;;;;;123.18;58.78;;;6.40;99.90;;;;;;5136602;27;20023;-64
2022/12/02 09:56:23;;;;;;;128.35;61.92;;;6.40;99.90;;;;;;5137906;27;20025;-64
2022/12/02 09:58:52;;;;;;;123.82;62.00;;;6.20;99.90;;;;;;5136945;27;20035;-64
2022/12/02 10:01:18;;;;;;;127.07;61.40;;;6.20;99.90;;;;;;5131814;27;20106;-64
2022/12/02 10:03:46;;;;;;;135.45;67.03;;;6.20;99.90;;;;;;5129795;27;20023;-64
2022/12/02 10:06:18;;;;;;;145.95;69.80;;;6.30;99.90;;;;;;5130010;27;20020;-64
2022/12/02 10:08:44;;;;;;;155.18;71.95;;;6.30;99.90;;;;;;5134722;27;20118;-64
2022/12/02 10:11:27;;;;;;;143.00;68.35;;;6.40;99.90;;;;;;5130908;27;20085;-65
2022/12/02 10:13:58;;;;;;;157.90;70.85;;;6.40;99.90;;;;;;5125145;27;20106;-64
2022/12/02 10:16:27;;;;;;;156.05;73.38;;;6.40;99.90;;;;;;5117378;28;20509;-64
2022/12/02 10:19:00;;;;;;;156.90;73.97;;;6.50;99.90;;;;;;5119774;27;20031;-64
2022/12/02 10:21:26;;;;;;;153.45;74.13;;;6.60;99.90;;;;;;5127411;27;20023;-64
2022/12/02 10:24:01;;;;;;;143.75;71.13;;;6.60;99.90;;;;;;5138335;27;20019;-64
2022/12/02 10:26:46;;;;;;;133.70;65.05;;;6.60;99.90;;;;;;5137579;27;20440;-64
2022/12/02 10:29:24;;;;;;;120.20;59.38;;;6.60;99.90;;;;;;5137709;27;20618;-64
2022/12/02 10:32:02;;;;;;;122.63;60.83;;;6.70;99.90;;;;;;5133480;27;20080;-65
2022/12/02 10:34:30;;;;;;;131.95;65.03;;;6.70;99.90;;;;;;5134167;27;20027;-65
2022/12/02 10:37:13;;;;;;;122.05;60.03;;;6.60;99.90;;;;;;5136808;27;20042;-64
2022/12/02 10:39:39;;;;;;;130.20;64.18;;;6.70;99.90;;;;;;5134933;27;20023;-64
2022/12/02 10:42:06;;;;;;;133.75;64.55;;;6.70;99.90;;;;;;5123400;27;20394;-64
2022/12/02 10:44:37;;;;;;;131.63;62.97;;;6.80;99.90;;;;;;5135368;27;20068;-64
2022/12/02 10:47:23;;;;;;;138.65;65.57;;;6.90;99.90;;;;;;5135877;27;20031;-64
2022/12/02 10:49:58;;;;;;;145.07;68.50;;;6.90;99.90;;;;;;5134355;27;20039;-64
2022/12/02 10:52:36;;;;;;;160.85;73.40;;;7.00;99.90;;;;;;5112342;27;20058;-64
2022/12/02 10:55:03;;;;;;;152.20;73.57;;;7.00;99.90;;;;;;5136558;27;20142;-65
2022/12/02 10:57:32;;;;;;;157.73;72.00;;;7.00;99.90;;;;;;5136082;27;20469;-64
2022/12/02 11:00:05;;;;;;;141.30;65.13;;;7.00;99.90;;;;;;5136925;27;20027;-64
2022/12/02 11:02:55;;;;;;;136.25;64.82;;;6.90;99.90;;;;;;5136400;27;20016;-64
2022/12/02 11:05:32;;;;;;;133.18;62.22;;;7.00;99.90;;;;;;5129044;27;20027;-64
2022/12/02 11:08:04;;;;;;;135.65;61.83;;;7.00;99.90;;;;;;5118910;27;20046;-64
2022/12/02 11:10:36;;;;;;;147.55;67.70;;;7.20;99.90;;;;;;5111296;27;20023;-64
2022/12/02 11:13:24;;;;;;;132.20;61.38;;;7.20;99.90;;;;;;5125103;27;20051;-65
2022/12/02 11:15:52;;;;;;;141.45;64.00;;;7.30;99.90;;;;;;5136372;27;20408;-64
2022/12/02 11:18:24;;;;;;;141.20;63.55;;;7.40;99.90;;;;;;5132594;27;20031;-64
2022/12/02 11:20:54;;;;;;;144.48;63.13;;;7.30;99.90;;;;;;5130612;27;20019;-65
2022/12/02 11:23:24;;;;;;;140.90;64.32;;;7.40;99.90;;;;;;5130755;27;20062;-64
2022/12/02 11:25:51;;;;;;;128.30;61.65;;;7.50;99.90;;;;;;5126415;27;20027;-64
2022/12/02 11:28:17;;;;;;;134.10;59.20;;;7.40;99.90;;;;;;5128247;27;20444;-64
2022/12/02 11:30:48;;;;;;;124.85;61.38;;;7.60;99.90;;;;;;5107121;27;20081;-65
2022/12/02 11:33:43;;;;;;;131.80;60.67;;;7.70;99.90;;;;;;5131667;27;20346;-64
2022/12/02 11:36:09;;;;;;;155.15;62.78;;;7.70;99.90;;;;;;5134088;27;20019;-64
2022/12/02 11:38:45;;;;;;;130.10;59.17;;;7.70;99.90;;;;;;5129040;27;20444;-64
2022/12/02 11:41:12;;;;;;;144.65;64.80;;;7.70;99.90;;;;;;5119019;27;20533;-64
2022/12/02 11:43:43;;;;;;;135.40;60.50;;;7.80;99.90;;;;;;5115022;28;20365;-64
2022/12/02 11:46:10;;;;;;;146.20;64.88;;;7.80;99.90;;;;;;5130075;27;20080;-64
2022/12/02 11:48:54;;;;;;;135.43;60.35;;;8.00;99.90;;;;;;5135877;27;20536;-64
2022/12/02 11:51:23;;;;;;;137.65;64.03;;;7.90;99.90;;;;;;5134732;27;20023;-64
2022/12/02 11:53:50;;;;;;;138.18;60.47;;;7.90;99.90;;;;;;5134799;27;20392;-64
2022/12/02 11:56:17;;;;;;;131.20;62.58;;;8.00;99.90;;;;;;5125409;27;20023;-64
2022/12/02 11:58:43;;;;;;;143.82;58.38;;;8.00;99.90;;;;;;5118653;27;20043;-64
2022/12/02 12:01:16;;;;;;;131.07;61.20;;;8.10;99.90;;;;;;5135352;27;20023;-65
2022/12/02 12:03:46;;;;;;;129.18;60.28;;;8.00;99.90;;;;;;5130158;27;20034;-64
2022/12/02 12:06:16;;;;;;;142.80;63.13;;;7.60;99.90;;;;;;5133343;27;20027;-64
2022/12/02 12:08:48;;;;;;;149.65;63.17;;;7.60;99.90;;;;;;5129695;27;20027;-64
2022/12/02 12:11:33;;;;;;;132.68;61.22;;;7.50;99.90;;;;;;5135063;27;20110;-64
2022/12/02 12:14:11;;;;;;;121.75;57.33;;;7.30;99.90;;;;;;5122962;27;20385;-64
2022/12/02 12:16:41;;;;;;;171.63;63.72;;;7.50;99.90;;;;;;5127603;27;20500;-64
2022/12/02 12:19:15;;;;;;;146.90;57.65;;;7.30;99.90;;;;;;5126046;27;20059;-64
2022/12/02 12:21:47;;;;;;;123.32;56.50;;;7.30;99.90;;;;;;5128647;27;20030;-64
2022/12/02 12:24:16;;;;;;;137.20;60.92;;;7.30;99.90;;;;;;5132083;27;20023;-64
2022/12/02 12:27:02;;;;;;;123.82;59.70;;;7.40;99.90;;;;;;5125826;27;20039;-63
2022/12/02 12:29:33;;;;;;;122.03;56.13;;;7.50;99.90;;;;;;5109189;27;20031;-64
2022/12/02 12:31:59;;;;;;;148.98;61.70;;;7.70;99.90;;;;;;5134739;27;20071;-64
2022/12/02 12:34:28;;;;;;;110.13;52.78;;;7.80;99.90;;;;;;5135665;27;20044;-63
2022/12/02 12:36:54;;;;;;;122.80;54.40;;;7.90;99.90;;;;;;5134155;28;20025;-64
2022/12/02 12:39:20;;;;;;;127.95;61.10;;;7.90;99.90;;;;;;5118328;28;20035;-64
2022/12/02 12:41:46;;;;;;;117.90;56.42;;;7.90;99.90;;;;;;5129026;27;20491;-64
2022/12/02 12:44:12;;;;;;;133.43;55.30;;;7.80;99.90;;;;;;5134536;28;20315;-64
2022/12/02 12:46:38;;;;;;;130.38;57.38;;;7.80;99.90;;;;;;5134459;27;20034;-64
2022/12/02 12:49:05;;;;;;;117.47;53.65;;;7.90;99.90;;;;;;5125471;28;20031;-64